createdAt,value
2022-10-30T00:00:43.743Z,10.75
2022-10-30T00:03:14.185Z,10.75
2022-10-30T00:05:43.116Z,11.13
2022-10-30T00:08:13.815Z,14.88
2022-10-30T00:10:40.773Z,14.15
2022-10-30T00:13:07.965Z,11.18
2022-10-30T00:15:34.721Z,8.20
2022-10-30T00:18:01.797Z,9.90
2022-10-30T00:20:28.136Z,13.80
2022-10-30T00:22:54.965Z,11.57
2022-10-30T00:25:21.866Z,9.00
2022-10-30T00:27:48.351Z,12.50
2022-10-30T00:30:15.586Z,15.18
2022-10-30T00:32:42.784Z,11.65
2022-10-30T00:35:10.325Z,8.48
2022-10-30T00:37:36.802Z,11.15
2022-10-30T00:40:04.584Z,12.75
2022-10-30T00:42:31.850Z,11.30
2022-10-30T00:44:59.018Z,12.35
2022-10-30T00:47:30.373Z,15.50
2022-10-30T00:50:17.852Z,10.18
2022-10-30T00:52:51.533Z,12.30
2022-10-30T00:55:22.745Z,11.40
2022-10-30T00:57:50.682Z,10.13
2022-10-30T01:00:19.099Z,13.80
2022-10-30T01:02:45.842Z,12.95
2022-10-30T01:05:17.185Z,9.45
2022-10-30T01:07:43.511Z,14.18
2022-10-30T01:10:10.993Z,7.75
2022-10-30T01:12:38.377Z,16.73
2022-10-30T01:15:05.534Z,14.50
2022-10-30T01:17:49.915Z,16.65
2022-10-30T01:20:22.185Z,16.25
2022-10-30T01:23:03.640Z,11.27
2022-10-30T01:25:56.583Z,9.35
2022-10-30T01:28:22.856Z,10.25
2022-10-30T01:31:06.613Z,14.00
2022-10-30T01:33:46.032Z,8.50
2022-10-30T01:36:25.844Z,11.82
2022-10-30T01:39:14.542Z,9.88
2022-10-30T01:41:41.040Z,14.35
2022-10-30T01:44:16.666Z,10.13
2022-10-30T01:47:07.547Z,16.10
2022-10-30T01:49:59.105Z,12.02
2022-10-30T01:52:39.537Z,11.45
2022-10-30T01:55:36.692Z,14.05
2022-10-30T01:58:21.920Z,12.70
2022-10-30T02:00:57.536Z,13.38
2022-10-30T02:03:24.821Z,10.60
2022-10-30T02:05:52.744Z,12.70
2022-10-30T02:08:21.029Z,15.30
2022-10-30T02:10:49.577Z,10.55
2022-10-30T02:13:16.447Z,12.05
2022-10-30T02:15:44.460Z,13.80
2022-10-30T02:18:11.081Z,13.98
2022-10-30T02:20:37.889Z,14.15
2022-10-30T02:23:06.678Z,11.63
2022-10-30T02:25:33.658Z,13.68
2022-10-30T02:28:00.240Z,11.02
2022-10-30T02:30:26.905Z,13.20
2022-10-30T02:32:53.313Z,18.45
2022-10-30T02:35:19.701Z,15.10
2022-10-30T02:37:48.541Z,20.17
2022-10-30T02:40:14.898Z,14.00
2022-10-30T02:42:41.248Z,9.10
2022-10-30T02:45:08.306Z,12.18
2022-10-30T02:47:34.624Z,10.32
2022-10-30T02:50:01.006Z,16.63
2022-10-30T02:52:27.405Z,15.82
2022-10-30T02:54:53.735Z,12.20
2022-10-30T02:57:20.094Z,10.48
2022-10-30T02:59:46.545Z,14.90
2022-10-30T03:02:12.954Z,20.17
2022-10-30T03:04:39.395Z,12.65
2022-10-30T03:07:05.740Z,14.45
2022-10-30T03:09:32.066Z,14.15
2022-10-30T03:11:58.426Z,11.00
2022-10-30T03:14:24.922Z,12.15
2022-10-30T03:16:52.512Z,13.02
2022-10-30T03:19:19.580Z,16.90
2022-10-30T03:21:46.382Z,12.23
2022-10-30T03:24:12.827Z,10.27
2022-10-30T03:26:39.168Z,13.00
2022-10-30T03:29:05.524Z,13.25
2022-10-30T03:31:32.677Z,15.50
2022-10-30T03:33:59.036Z,8.55
2022-10-30T03:36:26.336Z,15.02
2022-10-30T03:38:52.721Z,12.40
2022-10-30T03:41:19.029Z,13.57
2022-10-30T03:43:45.483Z,15.20
2022-10-30T03:46:11.848Z,12.10
2022-10-30T03:48:38.194Z,10.95
2022-10-30T03:51:04.677Z,8.70
2022-10-30T03:53:31.227Z,16.77
2022-10-30T03:56:00.092Z,15.77
2022-10-30T03:58:28.519Z,12.23
2022-10-30T04:00:55.455Z,12.00
2022-10-30T04:03:21.911Z,12.05
2022-10-30T04:05:50.965Z,11.73
2022-10-30T04:08:17.884Z,14.90
2022-10-30T04:10:45.427Z,11.90
2022-10-30T04:13:14.138Z,11.77
2022-10-30T04:15:40.971Z,15.73
2022-10-30T04:18:13.239Z,13.20
2022-10-30T04:20:39.916Z,11.32
2022-10-30T04:23:08.354Z,14.50
2022-10-30T04:25:35.387Z,12.50
2022-10-30T04:28:02.366Z,15.32
2022-10-30T04:30:31.249Z,12.93
2022-10-30T04:32:58.390Z,12.05
2022-10-30T04:35:27.300Z,12.45
2022-10-30T04:38:05.205Z,13.27
2022-10-30T04:40:34.957Z,12.65
2022-10-30T04:43:02.902Z,13.55
2022-10-30T04:45:29.846Z,13.50
2022-10-30T04:48:04.603Z,13.30
2022-10-30T04:50:32.129Z,13.85
2022-10-30T04:53:03.796Z,16.13
2022-10-30T04:55:30.953Z,13.27
2022-10-30T04:57:59.027Z,11.48
2022-10-30T05:00:27.078Z,16.60
2022-10-30T05:02:53.466Z,13.23
2022-10-30T05:05:20.458Z,10.07
2022-10-30T05:07:46.949Z,15.73
2022-10-30T05:10:18.347Z,12.02
2022-10-30T05:12:45.452Z,11.70
2022-10-30T05:15:13.526Z,11.32
2022-10-30T05:17:40.783Z,10.10
2022-10-30T05:20:07.997Z,12.68
2022-10-30T05:22:34.375Z,12.57
2022-10-30T05:25:00.717Z,10.75
2022-10-30T05:27:27.050Z,13.57
2022-10-30T05:29:53.391Z,15.35
2022-10-30T05:32:19.799Z,10.55
2022-10-30T05:34:46.197Z,12.57
2022-10-30T05:37:12.543Z,15.90
2022-10-30T05:39:38.873Z,12.63
2022-10-30T05:42:08.524Z,10.52
2022-10-30T05:44:59.250Z,9.80
2022-10-30T05:47:22.581Z,12.90
2022-10-30T05:49:48.926Z,10.95
2022-10-30T05:52:15.333Z,10.32
2022-10-30T05:54:41.683Z,14.55
2022-10-30T05:57:08.013Z,9.98
2022-10-30T05:59:34.430Z,11.95
2022-10-30T06:02:00.858Z,12.90
2022-10-30T06:04:27.314Z,15.77
2022-10-30T06:06:53.672Z,12.68
2022-10-30T06:09:20.076Z,13.40
2022-10-30T06:11:46.416Z,11.20
2022-10-30T06:14:12.745Z,12.63
2022-10-30T06:16:39.431Z,16.67
2022-10-30T06:19:05.777Z,11.88
2022-10-30T06:21:32.156Z,14.68
2022-10-30T06:23:58.951Z,13.18
2022-10-30T06:26:25.357Z,16.25
2022-10-30T06:28:51.886Z,11.30
2022-10-30T06:31:18.266Z,15.32
2022-10-30T06:36:11.066Z,10.27
2022-10-30T06:38:37.483Z,15.65
2022-10-30T06:41:03.987Z,15.82
2022-10-30T06:43:30.429Z,13.13
2022-10-30T06:45:59.890Z,9.38
2022-10-30T06:48:26.325Z,13.35
2022-10-30T06:51:00.213Z,12.50
2022-10-30T06:53:27.263Z,16.88
2022-10-30T06:56:00.241Z,11.13
2022-10-30T06:58:27.733Z,12.50
2022-10-30T07:01:10.053Z,11.13
2022-10-30T07:03:36.756Z,11.10
2022-10-30T07:06:03.531Z,13.80
2022-10-30T07:08:29.889Z,13.73
2022-10-30T07:10:58.095Z,13.60
2022-10-30T07:13:24.666Z,16.08
2022-10-30T07:15:51.032Z,14.63
2022-10-30T07:18:17.414Z,13.93
2022-10-30T07:20:43.828Z,11.63
2022-10-30T07:23:10.205Z,16.13
2022-10-30T07:25:36.521Z,13.15
2022-10-30T07:28:03.336Z,15.63
2022-10-30T07:30:29.812Z,13.68
2022-10-30T07:33:02.157Z,12.63
2022-10-30T07:35:29.563Z,14.75
2022-10-30T07:37:55.976Z,11.02
2022-10-30T07:40:22.803Z,13.85
2022-10-30T07:42:49.339Z,11.23
2022-10-30T07:45:15.720Z,15.50
2022-10-30T07:47:43.342Z,11.63
2022-10-30T07:50:10.666Z,14.73
2022-10-30T07:52:37.315Z,12.85
2022-10-30T07:55:04.942Z,16.77
2022-10-30T07:57:35.511Z,17.17
2022-10-30T08:00:04.653Z,13.18
2022-10-30T08:02:31.986Z,15.90
2022-10-30T08:04:58.661Z,13.70
2022-10-30T08:07:29.680Z,12.25
2022-10-30T08:09:56.074Z,16.48
2022-10-30T08:12:22.433Z,13.77
2022-10-30T08:14:49.176Z,14.90
2022-10-30T08:17:15.584Z,12.00
2022-10-30T08:19:41.913Z,12.60
2022-10-30T08:22:08.924Z,10.80
2022-10-30T08:24:35.370Z,16.90
2022-10-30T08:27:02.590Z,12.68
2022-10-30T08:29:28.964Z,12.52
2022-10-30T08:31:55.561Z,19.20
2022-10-30T08:34:22.353Z,16.25
2022-10-30T08:36:52.011Z,17.63
2022-10-30T08:39:19.000Z,18.30
2022-10-30T08:41:45.761Z,12.82
2022-10-30T08:44:12.506Z,14.05
2022-10-30T08:46:38.908Z,12.23
2022-10-30T08:49:05.285Z,13.18
2022-10-30T08:51:35.347Z,14.85
2022-10-30T08:54:01.834Z,16.83
2022-10-30T08:56:28.285Z,13.68
2022-10-30T08:58:54.777Z,12.65
2022-10-30T09:01:21.267Z,13.52
2022-10-30T09:03:47.850Z,15.57
2022-10-30T09:06:14.202Z,14.25
2022-10-30T09:08:40.713Z,16.38
2022-10-30T09:11:07.239Z,17.25
2022-10-30T09:13:33.617Z,14.98
2022-10-30T09:16:01.402Z,13.40
2022-10-30T09:18:29.295Z,11.95
2022-10-30T09:20:55.666Z,15.02
2022-10-30T09:23:22.153Z,11.98
2022-10-30T09:25:48.542Z,14.95
2022-10-30T09:28:14.902Z,12.93
2022-10-30T09:30:41.279Z,12.30
2022-10-30T09:33:09.098Z,15.23
2022-10-30T09:35:36.952Z,13.57
2022-10-30T09:38:03.475Z,13.32
2022-10-30T09:41:03.454Z,10.82
2022-10-30T09:44:00.639Z,13.50
2022-10-30T09:46:45.408Z,14.15
2022-10-30T09:49:41.330Z,16.13
2022-10-30T09:52:32.341Z,13.83
2022-10-30T09:55:32.126Z,15.50
2022-10-30T09:58:12.417Z,9.68
2022-10-30T10:00:44.629Z,13.50
2022-10-30T10:03:42.326Z,13.40
2022-10-30T10:06:15.764Z,12.10
2022-10-30T10:08:46.635Z,15.63
2022-10-30T10:11:25.910Z,15.32
2022-10-30T10:14:09.363Z,13.98
2022-10-30T10:16:39.232Z,11.82
2022-10-30T10:19:20.598Z,11.50
2022-10-30T10:21:57.693Z,14.70
2022-10-30T10:24:32.650Z,12.18
2022-10-30T10:27:23.355Z,16.80
2022-10-30T10:30:11.035Z,12.23
2022-10-30T10:33:08.835Z,13.15
2022-10-30T10:35:52.699Z,12.88
2022-10-30T10:38:37.410Z,16.02
2022-10-30T10:41:18.657Z,13.35
2022-10-30T10:44:00.382Z,10.95
2022-10-30T10:46:49.288Z,13.70
2022-10-30T10:49:32.396Z,14.82
2022-10-30T10:52:07.145Z,11.20
2022-10-30T10:54:42.268Z,10.73
2022-10-30T10:57:21.880Z,14.55
2022-10-30T10:59:54.059Z,8.88
2022-10-30T11:02:26.607Z,10.13
2022-10-30T11:04:59.896Z,15.05
2022-10-30T11:07:45.425Z,12.13
2022-10-30T11:10:14.567Z,10.73
2022-10-30T11:12:41.610Z,8.80
2022-10-30T11:15:49.769Z,13.35
2022-10-30T11:18:16.224Z,13.98
2022-10-30T11:21:03.538Z,14.48
2022-10-30T11:23:35.928Z,11.93
2022-10-30T11:26:03.241Z,10.63
2022-10-30T11:28:41.948Z,17.95
2022-10-30T11:31:24.578Z,14.95
2022-10-30T11:33:51.827Z,14.32
2022-10-30T11:36:22.929Z,11.43
2022-10-30T11:38:50.021Z,18.58
2022-10-30T11:41:18.074Z,12.95
2022-10-30T11:43:45.218Z,9.63
2022-10-30T11:46:21.007Z,11.13
2022-10-30T11:48:54.536Z,12.02
2022-10-30T11:51:39.472Z,11.27
2022-10-30T11:54:07.176Z,10.65
2022-10-30T11:56:35.387Z,14.25
2022-10-30T11:59:04.612Z,13.32
2022-10-30T12:01:39.014Z,15.93
2022-10-30T12:04:22.091Z,13.52
2022-10-30T12:07:08.150Z,11.18
2022-10-30T12:09:45.662Z,16.85
2022-10-30T12:12:24.395Z,10.27
2022-10-30T12:14:52.367Z,13.25
2022-10-30T12:17:20.090Z,17.20
2022-10-30T12:19:52.840Z,16.67
2022-10-30T12:22:30.361Z,15.15
2022-10-30T12:24:58.662Z,11.90
2022-10-30T12:27:25.841Z,11.35
2022-10-30T12:30:08.384Z,14.15
2022-10-30T12:32:45.676Z,9.52
2022-10-30T12:35:22.436Z,13.02
2022-10-30T12:37:52.634Z,14.88
2022-10-30T12:40:24.339Z,16.08
2022-10-30T12:43:03.705Z,11.93
2022-10-30T12:45:41.224Z,11.18
2022-10-30T12:48:27.951Z,13.00
2022-10-30T12:51:21.251Z,16.17
2022-10-30T12:54:04.800Z,13.32
2022-10-30T12:56:38.882Z,11.18
2022-10-30T12:59:39.826Z,11.13
2022-10-30T13:02:32.874Z,11.52
2022-10-30T13:05:05.481Z,12.15
2022-10-30T13:07:51.183Z,10.75
2022-10-30T13:10:25.673Z,8.18
2022-10-30T13:13:02.006Z,9.15
2022-10-30T13:15:33.636Z,12.25
2022-10-30T13:18:13.670Z,13.27
2022-10-30T13:20:40.738Z,12.60
2022-10-30T13:23:20.439Z,12.07
2022-10-30T13:26:09.998Z,15.43
2022-10-30T13:28:46.621Z,9.95
2022-10-30T13:31:34.522Z,10.40
2022-10-30T13:34:16.351Z,10.65
2022-10-30T13:36:50.605Z,12.13
2022-10-30T13:39:26.035Z,10.85
2022-10-30T13:42:01.167Z,9.45
2022-10-30T13:44:56.617Z,9.85
2022-10-30T13:47:42.361Z,11.38
2022-10-30T13:50:25.528Z,10.35
2022-10-30T13:52:57.576Z,11.05
2022-10-30T13:55:34.670Z,7.65
2022-10-30T13:58:24.535Z,11.63
2022-10-30T14:00:59.935Z,11.27
2022-10-30T14:03:59.042Z,14.75
2022-10-30T14:06:30.941Z,12.25
2022-10-30T14:09:27.942Z,11.90
2022-10-30T14:11:56.987Z,7.80
2022-10-30T14:14:23.339Z,13.38
2022-10-30T14:17:08.568Z,11.55
2022-10-30T14:20:13.355Z,10.45
2022-10-30T14:22:41.186Z,10.70
2022-10-30T14:25:15.244Z,10.75
2022-10-30T14:27:41.983Z,7.90
2022-10-30T14:30:20.645Z,9.35
2022-10-30T14:32:51.843Z,10.35
2022-10-30T14:35:39.003Z,12.60
2022-10-30T14:38:08.360Z,10.27
2022-10-30T14:40:38.590Z,15.27
2022-10-30T14:43:32.044Z,11.55
2022-10-30T14:46:04.813Z,11.05
2022-10-30T14:48:53.868Z,11.77
2022-10-30T14:51:28.091Z,9.93
2022-10-30T14:54:18.478Z,13.70
2022-10-30T14:56:49.632Z,10.63
2022-10-30T14:59:15.909Z,12.07
2022-10-30T15:01:52.657Z,10.07
2022-10-30T15:04:34.265Z,11.00
2022-10-30T15:07:19.608Z,15.40
2022-10-30T15:10:06.648Z,10.52
2022-10-30T15:13:07.563Z,10.77
2022-10-30T15:15:34.745Z,14.48
2022-10-30T15:18:18.045Z,12.13
2022-10-30T15:20:49.549Z,10.77
2022-10-30T15:23:31.961Z,12.23
2022-10-30T15:26:06.476Z,15.10
2022-10-30T15:28:36.795Z,10.25
2022-10-30T15:31:06.478Z,14.57
2022-10-30T15:33:37.542Z,9.75
2022-10-30T15:36:05.456Z,12.70
2022-10-30T15:38:31.940Z,12.77
2022-10-30T15:41:01.751Z,10.82
2022-10-30T15:43:42.057Z,9.32
2022-10-30T15:46:10.667Z,15.50
2022-10-30T15:48:40.283Z,10.00
2022-10-30T15:51:16.817Z,12.13
2022-10-30T15:53:43.242Z,10.93
2022-10-30T15:56:30.664Z,16.50
2022-10-30T15:59:03.453Z,15.55
2022-10-30T16:01:33.025Z,12.10
2022-10-30T16:03:59.626Z,12.30
2022-10-30T16:06:31.362Z,13.00
2022-10-30T16:08:58.197Z,14.27
2022-10-30T16:11:26.646Z,16.17
2022-10-30T16:13:53.535Z,17.80
2022-10-30T16:16:27.822Z,15.38
2022-10-30T16:18:58.971Z,17.38
2022-10-30T16:21:29.598Z,20.83
2022-10-30T16:23:58.079Z,25.65
2022-10-30T16:26:35.283Z,22.42
2022-10-30T16:29:13.871Z,21.00
2022-10-30T16:31:43.063Z,29.40
2022-10-30T16:34:16.139Z,31.13
2022-10-30T16:36:43.137Z,33.10
2022-10-30T16:39:15.326Z,37.67
2022-10-30T16:41:43.259Z,35.20
2022-10-30T16:44:12.340Z,36.38
2022-10-30T16:46:42.174Z,32.25
2022-10-30T16:49:16.264Z,35.72
2022-10-30T16:51:43.001Z,28.77
2022-10-30T16:54:20.296Z,25.23
2022-10-30T16:56:48.873Z,23.10
2022-10-30T16:59:24.313Z,19.77
2022-10-30T17:01:57.438Z,22.35
2022-10-30T17:04:25.007Z,17.90
2022-10-30T17:07:04.764Z,18.00
2022-10-30T17:09:36.300Z,18.08
2022-10-30T17:12:15.280Z,20.40
2022-10-30T17:14:43.807Z,21.08
2022-10-30T17:17:23.445Z,26.48
2022-10-30T17:19:56.407Z,21.17
2022-10-30T17:22:24.190Z,21.60
2022-10-30T17:24:50.680Z,26.42
2022-10-30T17:27:46.167Z,22.30
2022-10-30T17:30:34.459Z,19.75
2022-10-30T17:33:24.732Z,19.35
2022-10-30T17:35:51.355Z,16.98
2022-10-30T17:38:18.229Z,21.88
2022-10-30T17:40:44.593Z,26.52
2022-10-30T17:43:16.564Z,20.05
2022-10-30T17:45:44.058Z,25.63
2022-10-30T17:48:18.126Z,24.48
2022-10-30T17:50:44.914Z,17.95
2022-10-30T17:53:23.151Z,19.95
2022-10-30T17:56:03.545Z,23.42
2022-10-30T17:58:31.061Z,18.55
2022-10-30T18:00:58.408Z,17.27
2022-10-30T18:03:24.812Z,19.48
2022-10-30T18:05:52.362Z,15.73
2022-10-30T18:08:18.729Z,20.80
2022-10-30T18:10:45.112Z,19.17
2022-10-30T18:13:13.233Z,22.15
2022-10-30T18:15:44.057Z,18.35
2022-10-30T18:18:10.929Z,20.85
2022-10-30T18:20:38.660Z,17.42
2022-10-30T18:23:31.610Z,21.30
2022-10-30T18:26:00.066Z,20.98
2022-10-30T18:28:26.529Z,25.20
2022-10-30T18:30:58.346Z,18.00
2022-10-30T18:33:25.217Z,20.85
2022-10-30T18:35:51.650Z,19.63
2022-10-30T18:38:18.060Z,19.90
2022-10-30T18:40:46.646Z,23.58
2022-10-30T18:43:14.322Z,18.83
2022-10-30T18:45:41.841Z,21.65
2022-10-30T18:48:08.749Z,15.93
2022-10-30T18:50:35.842Z,22.20
2022-10-30T18:53:02.603Z,19.10
2022-10-30T18:55:34.821Z,16.73
2022-10-30T18:58:01.891Z,19.38
2022-10-30T19:00:39.699Z,23.33
2022-10-30T19:03:16.796Z,21.48
2022-10-30T19:05:48.278Z,17.50
2022-10-30T19:08:15.147Z,19.13
2022-10-30T19:10:43.891Z,18.75
2022-10-30T19:13:20.339Z,19.80
2022-10-30T19:15:49.623Z,16.70
2022-10-30T19:18:17.178Z,23.77
2022-10-30T19:21:03.401Z,22.73
2022-10-30T19:28:23.365Z,16.13
2022-10-30T19:30:50.269Z,19.98
2022-10-30T19:33:18.117Z,21.35
2022-10-30T19:35:44.592Z,25.10
2022-10-30T19:38:12.685Z,22.83
2022-10-30T19:40:40.487Z,24.42
2022-10-30T19:43:07.140Z,24.52
2022-10-30T19:45:34.257Z,19.27
2022-10-30T19:48:04.170Z,18.73
2022-10-30T19:50:34.366Z,22.88
2022-10-30T19:53:02.368Z,16.55
2022-10-30T19:55:31.261Z,18.52
2022-10-30T19:57:59.500Z,21.25
2022-10-30T20:00:27.302Z,24.95
2022-10-30T20:02:55.753Z,21.73
2022-10-30T20:05:24.709Z,20.33
2022-10-30T20:08:00.573Z,20.77
2022-10-30T20:10:28.512Z,17.50
2022-10-30T20:12:54.900Z,27.50
2022-10-30T20:15:22.790Z,23.13
2022-10-30T20:17:49.647Z,19.90
2022-10-30T20:20:19.976Z,23.45
2022-10-30T20:22:46.582Z,21.60
2022-10-30T20:25:13.821Z,26.48
2022-10-30T20:27:41.986Z,18.00
2022-10-30T20:30:13.260Z,19.42
2022-10-30T20:32:39.670Z,19.83
2022-10-30T20:35:10.294Z,18.05
2022-10-30T20:37:37.845Z,26.85
2022-10-30T20:40:04.787Z,19.45
2022-10-30T20:42:36.860Z,23.70
2022-10-30T20:45:04.146Z,15.25
2022-10-30T20:47:30.579Z,16.58
2022-10-30T20:49:56.913Z,16.77
2022-10-30T20:52:23.382Z,19.08
2022-10-30T20:54:49.818Z,17.00
2022-10-30T20:57:16.195Z,17.65
2022-10-30T20:59:42.532Z,19.25
2022-10-30T21:02:11.552Z,24.75
2022-10-30T21:04:38.037Z,17.15
2022-10-30T21:07:04.437Z,14.90
2022-10-30T21:09:30.762Z,20.40
2022-10-30T21:11:57.206Z,20.35
2022-10-30T21:14:23.665Z,19.75
2022-10-30T21:16:50.213Z,21.15
2022-10-30T21:19:16.581Z,22.00
2022-10-30T21:21:42.917Z,18.08
2022-10-30T21:24:09.597Z,20.77
2022-10-30T21:26:37.641Z,19.35
2022-10-30T21:29:05.089Z,16.20
2022-10-30T21:31:31.731Z,20.40
2022-10-30T21:33:58.071Z,20.27
2022-10-30T21:36:24.712Z,18.42
2022-10-30T21:38:51.190Z,20.02
2022-10-30T21:41:20.059Z,17.55
2022-10-30T21:43:54.382Z,19.73
2022-10-30T21:46:22.008Z,23.20
2022-10-30T21:48:48.776Z,18.85
2022-10-30T21:51:23.821Z,18.55
2022-10-30T21:53:50.476Z,20.47
2022-10-30T21:56:22.156Z,18.38
2022-10-30T21:58:49.220Z,16.40
2022-10-30T22:01:19.203Z,16.63
2022-10-30T22:03:46.572Z,16.23
2022-10-30T22:06:15.121Z,24.00
2022-10-30T22:08:45.323Z,17.58
2022-10-30T22:11:12.332Z,16.10
2022-10-30T22:13:38.980Z,14.45
2022-10-30T22:16:07.847Z,15.27
2022-10-30T22:18:34.883Z,20.33
2022-10-30T22:21:11.928Z,21.00
2022-10-30T22:23:39.255Z,17.83
2022-10-30T22:26:17.593Z,18.08
2022-10-30T22:28:44.466Z,16.42
2022-10-30T22:31:16.614Z,17.77
2022-10-30T22:33:43.673Z,15.45
2022-10-30T22:36:17.607Z,22.98
2022-10-30T22:38:45.163Z,18.50
2022-10-30T22:41:14.834Z,16.70
2022-10-30T22:43:42.580Z,15.88
2022-10-30T22:46:09.844Z,15.60
2022-10-30T22:48:36.964Z,17.27
2022-10-30T22:51:07.675Z,22.00
2022-10-30T22:53:36.014Z,15.00
2022-10-30T22:56:21.118Z,15.05
2022-10-30T22:58:50.906Z,17.73
2022-10-30T23:01:26.830Z,19.25
2022-10-30T23:03:56.054Z,15.70
2022-10-30T23:06:22.575Z,13.63
2022-10-30T23:08:51.197Z,17.20
2022-10-30T23:11:17.565Z,15.13
2022-10-30T23:13:45.290Z,15.23
2022-10-30T23:16:16.734Z,17.67
2022-10-30T23:18:44.112Z,17.48
2022-10-30T23:21:14.254Z,15.55
2022-10-30T23:23:41.641Z,16.60
2022-10-30T23:26:13.981Z,16.50
2022-10-30T23:28:40.446Z,15.68
2022-10-30T23:31:08.762Z,16.27
2022-10-30T23:33:35.097Z,16.38
2022-10-30T23:36:03.549Z,15.45
2022-10-30T23:38:30.456Z,19.40
2022-10-30T23:40:56.838Z,15.85
2022-10-30T23:43:23.303Z,15.52
2022-10-30T23:45:49.835Z,16.38
2022-10-30T23:48:16.456Z,16.65
2022-10-30T23:50:42.810Z,16.77
2022-10-30T23:53:09.197Z,15.68
2022-10-30T23:55:35.548Z,14.57
2022-10-30T23:58:02.301Z,17.75
